sensor_id;sensor_type;location;lat;lon;timestamp;P1;durP1;ratioP1;P2;durP2;ratioP2
53299;SDS011;39187;48.476;8.310;2023-08-01T00:02:19;6.10;;;4.07;;
53299;SDS011;39187;48.476;8.310;2023-08-01T00:04:44;5.57;;;4.93;;
53299;SDS011;39187;48.476;8.310;2023-08-01T00:07:09;5.03;;;4.50;;
53299;SDS011;39187;48.476;8.310;2023-08-01T00:09:35;5.20;;;4.80;;
53299;SDS011;39187;48.476;8.310;2023-08-01T00:12:00;8.83;;;4.07;;
53299;SDS011;39187;48.476;8.310;2023-08-01T00:14:26;4.93;;;4.50;;
53299;SDS011;39187;48.476;8.310;2023-08-01T00:16:51;4.63;;;4.37;;
53299;SDS011;39187;48.476;8.310;2023-08-01T00:19:17;4.40;;;4.00;;
53299;SDS011;39187;48.476;8.310;2023-08-01T00:21:43;4.43;;;4.13;;
53299;SDS011;39187;48.476;8.310;2023-08-01T00:24:08;4.50;;;3.83;;
53299;SDS011;39187;48.476;8.310;2023-08-01T00:26:34;4.33;;;3.90;;
53299;SDS011;39187;48.476;8.310;2023-08-01T00:29:00;5.10;;;4.80;;
53299;SDS011;39187;48.476;8.310;2023-08-01T00:31:26;4.47;;;4.17;;
53299;SDS011;39187;48.476;8.310;2023-08-01T00:33:51;4.30;;;4.00;;
53299;SDS011;39187;48.476;8.310;2023-08-01T00:36:17;4.97;;;4.57;;
53299;SDS011;39187;48.476;8.310;2023-08-01T00:38:42;5.00;;;4.60;;
53299;SDS011;39187;48.476;8.310;2023-08-01T00:41:11;4.50;;;4.20;;
53299;SDS011;39187;48.476;8.310;2023-08-01T00:43:36;5.47;;;4.27;;
53299;SDS011;39187;48.476;8.310;2023-08-01T00:46:03;5.23;;;4.97;;
53299;SDS011;39187;48.476;8.310;2023-08-01T00:48:30;5.60;;;4.03;;
53299;SDS011;39187;48.476;8.310;2023-08-01T00:50:57;4.80;;;4.60;;
53299;SDS011;39187;48.476;8.310;2023-08-01T00:53:24;7.67;;;4.30;;
53299;SDS011;39187;48.476;8.310;2023-08-01T00:55:53;6.27;;;4.60;;
53299;SDS011;39187;48.476;8.310;2023-08-01T00:58:20;4.03;;;3.83;;
53299;SDS011;39187;48.476;8.310;2023-08-01T01:00:45;4.47;;;4.17;;
53299;SDS011;39187;48.476;8.310;2023-08-01T01:03:12;4.87;;;4.43;;
53299;SDS011;39187;48.476;8.310;2023-08-01T01:05:38;7.83;;;4.30;;
53299;SDS011;39187;48.476;8.310;2023-08-01T01:08:13;4.30;;;4.00;;
53299;SDS011;39187;48.476;8.310;2023-08-01T01:10:38;4.43;;;4.13;;
53299;SDS011;39187;48.476;8.310;2023-08-01T01:13:04;4.90;;;3.77;;
53299;SDS011;39187;48.476;8.310;2023-08-01T01:15:29;5.23;;;4.83;;
53299;SDS011;39187;48.476;8.310;2023-08-01T01:17:55;5.47;;;5.17;;
53299;SDS011;39187;48.476;8.310;2023-08-01T01:20:24;4.53;;;4.13;;
53299;SDS011;39187;48.476;8.310;2023-08-01T01:22:50;7.53;;;4.33;;
53299;SDS011;39187;48.476;8.310;2023-08-01T01:25:18;4.17;;;3.77;;
53299;SDS011;39187;48.476;8.310;2023-08-01T01:27:45;4.23;;;3.93;;
53299;SDS011;39187;48.476;8.310;2023-08-01T01:30:12;3.70;;;3.40;;
53299;SDS011;39187;48.476;8.310;2023-08-01T01:32:38;6.10;;;3.60;;
53299;SDS011;39187;48.476;8.310;2023-08-01T01:35:04;4.77;;;4.37;;
53299;SDS011;39187;48.476;8.310;2023-08-01T01:37:30;4.30;;;4.00;;
53299;SDS011;39187;48.476;8.310;2023-08-01T01:39:55;5.80;;;3.90;;
53299;SDS011;39187;48.476;8.310;2023-08-01T01:42:21;4.13;;;3.80;;
53299;SDS011;39187;48.476;8.310;2023-08-01T01:44:46;4.23;;;3.93;;
53299;SDS011;39187;48.476;8.310;2023-08-01T01:47:12;5.17;;;4.67;;
53299;SDS011;39187;48.476;8.310;2023-08-01T01:49:37;4.53;;;4.13;;
53299;SDS011;39187;48.476;8.310;2023-08-01T01:52:03;5.77;;;5.30;;
53299;SDS011;39187;48.476;8.310;2023-08-01T01:54:29;4.83;;;4.53;;
53299;SDS011;39187;48.476;8.310;2023-08-01T01:56:54;4.63;;;4.27;;
53299;SDS011;39187;48.476;8.310;2023-08-01T01:59:20;5.03;;;4.63;;
53299;SDS011;39187;48.476;8.310;2023-08-01T02:01:45;11.23;;;4.40;;
53299;SDS011;39187;48.476;8.310;2023-08-01T02:04:11;4.50;;;4.10;;
53299;SDS011;39187;48.476;8.310;2023-08-01T02:06:36;3.97;;;3.40;;
53299;SDS011;39187;48.476;8.310;2023-08-01T02:09:02;4.97;;;3.70;;
53299;SDS011;39187;48.476;8.310;2023-08-01T02:11:28;4.40;;;4.10;;
53299;SDS011;39187;48.476;8.310;2023-08-01T02:13:54;7.50;;;4.70;;
53299;SDS011;39187;48.476;8.310;2023-08-01T02:16:19;5.90;;;3.97;;
53299;SDS011;39187;48.476;8.310;2023-08-01T02:18:44;4.17;;;3.87;;
53299;SDS011;39187;48.476;8.310;2023-08-01T02:21:10;4.50;;;3.57;;
53299;SDS011;39187;48.476;8.310;2023-08-01T02:23:35;5.50;;;4.30;;
53299;SDS011;39187;48.476;8.310;2023-08-01T02:26:01;7.70;;;4.10;;
53299;SDS011;39187;48.476;8.310;2023-08-01T02:28:27;4.30;;;3.90;;
53299;SDS011;39187;48.476;8.310;2023-08-01T02:30:52;4.57;;;3.77;;
53299;SDS011;39187;48.476;8.310;2023-08-01T02:33:18;6.63;;;3.90;;
53299;SDS011;39187;48.476;8.310;2023-08-01T02:35:43;5.27;;;4.40;;
53299;SDS011;39187;48.476;8.310;2023-08-01T02:38:08;4.73;;;4.30;;
53299;SDS011;39187;48.476;8.310;2023-08-01T02:40:34;4.07;;;3.77;;
53299;SDS011;39187;48.476;8.310;2023-08-01T02:42:59;4.43;;;4.13;;
53299;SDS011;39187;48.476;8.310;2023-08-01T02:45:25;6.30;;;4.70;;
53299;SDS011;39187;48.476;8.310;2023-08-01T02:47:50;5.07;;;4.60;;
53299;SDS011;39187;48.476;8.310;2023-08-01T02:50:16;4.63;;;4.40;;
53299;SDS011;39187;48.476;8.310;2023-08-01T02:52:41;6.60;;;5.90;;
53299;SDS011;39187;48.476;8.310;2023-08-01T02:55:07;4.90;;;4.47;;
53299;SDS011;39187;48.476;8.310;2023-08-01T02:57:32;8.23;;;5.50;;
53299;SDS011;39187;48.476;8.310;2023-08-01T02:59:58;6.90;;;6.27;;
53299;SDS011;39187;48.476;8.310;2023-08-01T03:02:24;5.50;;;5.10;;
53299;SDS011;39187;48.476;8.310;2023-08-01T03:04:49;5.70;;;5.20;;
53299;SDS011;39187;48.476;8.310;2023-08-01T03:07:15;5.97;;;5.57;;
53299;SDS011;39187;48.476;8.310;2023-08-01T03:09:40;8.40;;;5.33;;
53299;SDS011;39187;48.476;8.310;2023-08-01T03:12:07;7.73;;;4.83;;
53299;SDS011;39187;48.476;8.310;2023-08-01T03:14:33;5.77;;;4.90;;
53299;SDS011;39187;48.476;8.310;2023-08-01T03:16:58;6.03;;;5.50;;
53299;SDS011;39187;48.476;8.310;2023-08-01T03:19:24;8.50;;;4.63;;
53299;SDS011;39187;48.476;8.310;2023-08-01T03:21:49;8.57;;;5.23;;
53299;SDS011;39187;48.476;8.310;2023-08-01T03:24:15;6.07;;;5.53;;
53299;SDS011;39187;48.476;8.310;2023-08-01T03:26:40;5.40;;;4.60;;
53299;SDS011;39187;48.476;8.310;2023-08-01T03:29:06;8.90;;;5.63;;
53299;SDS011;39187;48.476;8.310;2023-08-01T03:31:31;5.30;;;4.97;;
53299;SDS011;39187;48.476;8.310;2023-08-01T03:33:57;5.47;;;5.00;;
53299;SDS011;39187;48.476;8.310;2023-08-01T03:36:25;5.00;;;4.70;;
53299;SDS011;39187;48.476;8.310;2023-08-01T03:38:51;4.50;;;4.10;;
53299;SDS011;39187;48.476;8.310;2023-08-01T03:41:16;5.43;;;5.00;;
53299;SDS011;39187;48.476;8.310;2023-08-01T03:43:42;6.07;;;5.47;;
53299;SDS011;39187;48.476;8.310;2023-08-01T03:46:09;5.60;;;5.10;;
53299;SDS011;39187;48.476;8.310;2023-08-01T03:48:34;5.30;;;4.20;;
53299;SDS011;39187;48.476;8.310;2023-08-01T03:51:00;5.63;;;5.10;;
53299;SDS011;39187;48.476;8.310;2023-08-01T03:53:28;4.30;;;3.93;;
53299;SDS011;39187;48.476;8.310;2023-08-01T03:55:53;7.77;;;4.93;;
53299;SDS011;39187;48.476;8.310;2023-08-01T03:58:19;4.77;;;4.40;;
53299;SDS011;39187;48.476;8.310;2023-08-01T04:00:44;11.40;;;5.17;;
53299;SDS011;39187;48.476;8.310;2023-08-01T04:03:10;6.00;;;4.67;;
53299;SDS011;39187;48.476;8.310;2023-08-01T04:05:36;4.60;;;4.40;;
53299;SDS011;39187;48.476;8.310;2023-08-01T04:08:01;6.93;;;4.40;;
53299;SDS011;39187;48.476;8.310;2023-08-01T04:10:27;4.93;;;4.63;;
53299;SDS011;39187;48.476;8.310;2023-08-01T04:12:52;7.23;;;5.27;;
53299;SDS011;39187;48.476;8.310;2023-08-01T04:15:18;5.53;;;5.03;;
53299;SDS011;39187;48.476;8.310;2023-08-01T04:17:43;5.37;;;5.07;;
53299;SDS011;39187;48.476;8.310;2023-08-01T04:20:09;6.33;;;5.13;;
53299;SDS011;39187;48.476;8.310;2023-08-01T04:22:35;8.53;;;5.80;;
53299;SDS011;39187;48.476;8.310;2023-08-01T04:25:01;6.90;;;5.00;;
53299;SDS011;39187;48.476;8.310;2023-08-01T04:27:27;8.77;;;6.73;;
53299;SDS011;39187;48.476;8.310;2023-08-01T04:29:52;6.10;;;5.60;;
53299;SDS011;39187;48.476;8.310;2023-08-01T04:32:19;8.10;;;6.10;;
53299;SDS011;39187;48.476;8.310;2023-08-01T04:34:44;6.03;;;5.53;;
53299;SDS011;39187;48.476;8.310;2023-08-01T04:37:10;7.10;;;5.70;;
53299;SDS011;39187;48.476;8.310;2023-08-01T04:39:36;7.30;;;6.70;;
53299;SDS011;39187;48.476;8.310;2023-08-01T04:42:02;8.43;;;5.93;;
53299;SDS011;39187;48.476;8.310;2023-08-01T04:44:27;9.50;;;5.20;;
53299;SDS011;39187;48.476;8.310;2023-08-01T04:46:54;5.70;;;5.40;;
53299;SDS011;39187;48.476;8.310;2023-08-01T04:49:19;5.30;;;4.83;;
53299;SDS011;39187;48.476;8.310;2023-08-01T04:51:45;4.63;;;4.43;;
53299;SDS011;39187;48.476;8.310;2023-08-01T04:54:10;5.73;;;5.10;;
53299;SDS011;39187;48.476;8.310;2023-08-01T04:56:36;5.40;;;5.00;;
53299;SDS011;39187;48.476;8.310;2023-08-01T04:59:01;5.20;;;4.80;;
53299;SDS011;39187;48.476;8.310;2023-08-01T05:01:27;4.30;;;4.00;;
53299;SDS011;39187;48.476;8.310;2023-08-01T05:03:52;5.67;;;3.77;;
53299;SDS011;39187;48.476;8.310;2023-08-01T05:06:18;3.40;;;3.20;;
53299;SDS011;39187;48.476;8.310;2023-08-01T05:08:43;4.00;;;3.57;;
53299;SDS011;39187;48.476;8.310;2023-08-01T05:11:09;4.20;;;3.50;;
53299;SDS011;39187;48.476;8.310;2023-08-01T05:13:34;4.33;;;3.90;;
53299;SDS011;39187;48.476;8.310;2023-08-01T05:16:00;4.00;;;3.80;;
53299;SDS011;39187;48.476;8.310;2023-08-01T05:18:26;4.87;;;4.47;;
53299;SDS011;39187;48.476;8.310;2023-08-01T05:20:51;4.83;;;4.43;;
53299;SDS011;39187;48.476;8.310;2023-08-01T05:23:17;4.50;;;4.20;;
53299;SDS011;39187;48.476;8.310;2023-08-01T05:25:42;8.13;;;4.77;;
53299;SDS011;39187;48.476;8.310;2023-08-01T05:28:08;6.20;;;5.53;;
53299;SDS011;39187;48.476;8.310;2023-08-01T05:30:33;5.17;;;4.67;;
53299;SDS011;39187;48.476;8.310;2023-08-01T05:32:59;6.13;;;5.43;;
53299;SDS011;39187;48.476;8.310;2023-08-01T05:35:25;7.40;;;6.70;;
53299;SDS011;39187;48.476;8.310;2023-08-01T05:37:51;8.37;;;6.97;;
53299;SDS011;39187;48.476;8.310;2023-08-01T05:40:16;7.20;;;6.57;;
53299;SDS011;39187;48.476;8.310;2023-08-01T05:42:42;7.50;;;6.77;;
53299;SDS011;39187;48.476;8.310;2023-08-01T05:45:07;11.70;;;7.40;;
53299;SDS011;39187;48.476;8.310;2023-08-01T05:47:33;7.57;;;6.87;;
53299;SDS011;39187;48.476;8.310;2023-08-01T05:50:00;7.50;;;6.80;;
53299;SDS011;39187;48.476;8.310;2023-08-01T05:52:26;9.13;;;8.30;;
53299;SDS011;39187;48.476;8.310;2023-08-01T05:54:51;9.13;;;8.33;;
53299;SDS011;39187;48.476;8.310;2023-08-01T05:57:17;11.57;;;7.53;;
53299;SDS011;39187;48.476;8.310;2023-08-01T05:59:42;9.30;;;8.10;;
53299;SDS011;39187;48.476;8.310;2023-08-01T06:02:08;9.47;;;8.63;;
53299;SDS011;39187;48.476;8.310;2023-08-01T06:04:33;12.13;;;9.00;;
53299;SDS011;39187;48.476;8.310;2023-08-01T06:06:59;8.37;;;7.57;;
53299;SDS011;39187;48.476;8.310;2023-08-01T06:09:25;9.07;;;8.17;;
53299;SDS011;39187;48.476;8.310;2023-08-01T06:11:50;9.93;;;7.57;;
53299;SDS011;39187;48.476;8.310;2023-08-01T06:14:16;7.87;;;7.17;;
53299;SDS011;39187;48.476;8.310;2023-08-01T06:16:42;8.10;;;7.30;;
53299;SDS011;39187;48.476;8.310;2023-08-01T06:19:08;9.87;;;7.83;;
53299;SDS011;39187;48.476;8.310;2023-08-01T06:21:33;8.03;;;7.33;;
53299;SDS011;39187;48.476;8.310;2023-08-01T06:23:59;6.73;;;6.23;;
53299;SDS011;39187;48.476;8.310;2023-08-01T06:26:25;7.40;;;6.77;;
53299;SDS011;39187;48.476;8.310;2023-08-01T06:28:50;7.40;;;6.70;;
53299;SDS011;39187;48.476;8.310;2023-08-01T06:31:18;7.40;;;6.80;;
53299;SDS011;39187;48.476;8.310;2023-08-01T06:33:44;8.13;;;7.33;;
53299;SDS011;39187;48.476;8.310;2023-08-01T06:36:10;6.97;;;6.07;;
53299;SDS011;39187;48.476;8.310;2023-08-01T06:38:35;7.07;;;6.47;;
53299;SDS011;39187;48.476;8.310;2023-08-01T06:41:01;9.70;;;6.40;;
53299;SDS011;39187;48.476;8.310;2023-08-01T06:43:26;8.93;;;5.80;;
53299;SDS011;39187;48.476;8.310;2023-08-01T06:45:52;5.40;;;5.00;;
53299;SDS011;39187;48.476;8.310;2023-08-01T06:48:17;5.00;;;4.47;;
53299;SDS011;39187;48.476;8.310;2023-08-01T06:50:43;3.43;;;3.33;;
53299;SDS011;39187;48.476;8.310;2023-08-01T06:53:08;3.80;;;3.60;;
53299;SDS011;39187;48.476;8.310;2023-08-01T06:55:34;4.20;;;3.90;;
53299;SDS011;39187;48.476;8.310;2023-08-01T06:57:59;4.03;;;3.83;;
53299;SDS011;39187;48.476;8.310;2023-08-01T07:00:25;4.90;;;3.87;;
53299;SDS011;39187;48.476;8.310;2023-08-01T07:02:50;5.00;;;4.50;;
53299;SDS011;39187;48.476;8.310;2023-08-01T07:05:16;3.80;;;3.60;;
53299;SDS011;39187;48.476;8.310;2023-08-01T07:07:41;3.60;;;3.40;;
53299;SDS011;39187;48.476;8.310;2023-08-01T07:10:07;3.70;;;3.50;;
53299;SDS011;39187;48.476;8.310;2023-08-01T07:12:33;3.77;;;2.70;;
53299;SDS011;39187;48.476;8.310;2023-08-01T07:14:58;3.03;;;2.87;;
53299;SDS011;39187;48.476;8.310;2023-08-01T07:17:24;4.97;;;3.20;;
53299;SDS011;39187;48.476;8.310;2023-08-01T07:19:49;2.80;;;2.60;;
53299;SDS011;39187;48.476;8.310;2023-08-01T07:22:15;2.97;;;2.80;;
53299;SDS011;39187;48.476;8.310;2023-08-01T07:24:40;3.03;;;2.80;;
53299;SDS011;39187;48.476;8.310;2023-08-01T07:27:05;2.93;;;2.73;;
53299;SDS011;39187;48.476;8.310;2023-08-01T07:29:31;2.40;;;2.20;;
53299;SDS011;39187;48.476;8.310;2023-08-01T07:31:56;2.10;;;2.00;;
53299;SDS011;39187;48.476;8.310;2023-08-01T07:34:22;2.20;;;2.10;;
53299;SDS011;39187;48.476;8.310;2023-08-01T07:36:48;2.90;;;2.70;;
53299;SDS011;39187;48.476;8.310;2023-08-01T07:39:14;2.33;;;2.13;;
53299;SDS011;39187;48.476;8.310;2023-08-01T07:41:40;1.70;;;1.60;;
53299;SDS011;39187;48.476;8.310;2023-08-01T07:44:06;1.30;;;1.20;;
53299;SDS011;39187;48.476;8.310;2023-08-01T07:46:31;2.30;;;1.10;;
53299;SDS011;39187;48.476;8.310;2023-08-01T07:48:57;1.30;;;1.20;;
53299;SDS011;39187;48.476;8.310;2023-08-01T07:51:24;1.17;;;1.07;;
53299;SDS011;39187;48.476;8.310;2023-08-01T07:53:53;1.43;;;1.33;;
53299;SDS011;39187;48.476;8.310;2023-08-01T07:56:20;1.60;;;1.50;;
53299;SDS011;39187;48.476;8.310;2023-08-01T07:58:45;1.87;;;1.10;;
53299;SDS011;39187;48.476;8.310;2023-08-01T08:01:11;2.03;;;0.90;;
53299;SDS011;39187;48.476;8.310;2023-08-01T08:03:36;1.30;;;1.07;;
53299;SDS011;39187;48.476;8.310;2023-08-01T08:06:02;0.83;;;0.83;;
53299;SDS011;39187;48.476;8.310;2023-08-01T08:08:29;0.70;;;0.70;;
53299;SDS011;39187;48.476;8.310;2023-08-01T08:10:55;3.47;;;0.73;;
53299;SDS011;39187;48.476;8.310;2023-08-01T08:13:20;0.97;;;0.70;;
53299;SDS011;39187;48.476;8.310;2023-08-01T08:15:46;1.03;;;0.60;;
53299;SDS011;39187;48.476;8.310;2023-08-01T08:18:12;0.60;;;0.60;;
53299;SDS011;39187;48.476;8.310;2023-08-01T08:20:41;0.60;;;0.60;;
53299;SDS011;39187;48.476;8.310;2023-08-01T08:23:08;0.60;;;0.50;;
53299;SDS011;39187;48.476;8.310;2023-08-01T08:28:29;0.80;;;0.60;;
53299;SDS011;39187;48.476;8.310;2023-08-01T08:30:57;0.50;;;0.50;;
53299;SDS011;39187;48.476;8.310;2023-08-01T08:33:23;0.70;;;0.70;;
53299;SDS011;39187;48.476;8.310;2023-08-01T08:35:49;1.27;;;0.60;;
53299;SDS011;39187;48.476;8.310;2023-08-01T08:38:16;2.73;;;0.70;;
53299;SDS011;39187;48.476;8.310;2023-08-01T08:40:46;0.70;;;0.70;;
53299;SDS011;39187;48.476;8.310;2023-08-01T08:43:21;0.80;;;0.60;;
53299;SDS011;39187;48.476;8.310;2023-08-01T08:45:48;1.07;;;0.80;;
53299;SDS011;39187;48.476;8.310;2023-08-01T08:48:16;0.80;;;0.70;;
53299;SDS011;39187;48.476;8.310;2023-08-01T08:50:43;0.90;;;0.70;;
53299;SDS011;39187;48.476;8.310;2023-08-01T08:53:10;0.83;;;0.83;;
53299;SDS011;39187;48.476;8.310;2023-08-01T08:55:38;0.90;;;0.90;;
53299;SDS011;39187;48.476;8.310;2023-08-01T08:58:05;1.20;;;1.20;;
53299;SDS011;39187;48.476;8.310;2023-08-01T09:00:31;0.90;;;0.87;;
53299;SDS011;39187;48.476;8.310;2023-08-01T09:02:57;0.70;;;0.67;;
53299;SDS011;39187;48.476;8.310;2023-08-01T09:05:23;0.70;;;0.70;;
53299;SDS011;39187;48.476;8.310;2023-08-01T09:07:52;0.87;;;0.70;;
53299;SDS011;39187;48.476;8.310;2023-08-01T09:10:21;0.60;;;0.60;;
53299;SDS011;39187;48.476;8.310;2023-08-01T09:12:47;0.73;;;0.70;;
53299;SDS011;39187;48.476;8.310;2023-08-01T09:15:13;0.60;;;0.50;;
53299;SDS011;39187;48.476;8.310;2023-08-01T09:17:49;0.80;;;0.73;;
53299;SDS011;39187;48.476;8.310;2023-08-01T09:20:16;2.53;;;2.43;;
53299;SDS011;39187;48.476;8.310;2023-08-01T09:22:45;1.80;;;1.70;;
53299;SDS011;39187;48.476;8.310;2023-08-01T09:25:11;0.60;;;0.50;;
53299;SDS011;39187;48.476;8.310;2023-08-01T09:27:38;1.40;;;1.30;;
53299;SDS011;39187;48.476;8.310;2023-08-01T09:32:33;1.20;;;0.50;;
53299;SDS011;39187;48.476;8.310;2023-08-01T09:34:59;2.20;;;0.50;;
53299;SDS011;39187;48.476;8.310;2023-08-01T09:37:25;0.50;;;0.50;;
53299;SDS011;39187;48.476;8.310;2023-08-01T09:39:54;0.50;;;0.50;;
53299;SDS011;39187;48.476;8.310;2023-08-01T09:42:22;0.83;;;0.83;;
53299;SDS011;39187;48.476;8.310;2023-08-01T09:44:48;0.60;;;0.60;;
53299;SDS011;39187;48.476;8.310;2023-08-01T09:47:13;0.70;;;0.70;;
53299;SDS011;39187;48.476;8.310;2023-08-01T09:49:47;0.80;;;0.70;;
53299;SDS011;39187;48.476;8.310;2023-08-01T09:52:26;0.83;;;0.83;;
53299;SDS011;39187;48.476;8.310;2023-08-01T09:54:52;0.83;;;0.83;;
53299;SDS011;39187;48.476;8.310;2023-08-01T09:57:17;1.30;;;0.80;;
53299;SDS011;39187;48.476;8.310;2023-08-01T09:59:44;0.80;;;0.80;;
53299;SDS011;39187;48.476;8.310;2023-08-01T10:02:10;0.67;;;0.67;;
53299;SDS011;39187;48.476;8.310;2023-08-01T10:04:42;0.80;;;0.80;;
53299;SDS011;39187;48.476;8.310;2023-08-01T10:07:08;1.23;;;1.13;;
53299;SDS011;39187;48.476;8.310;2023-08-01T10:09:39;0.90;;;0.90;;
53299;SDS011;39187;48.476;8.310;2023-08-01T10:12:06;1.43;;;1.40;;
53299;SDS011;39187;48.476;8.310;2023-08-01T10:14:32;1.70;;;1.60;;
53299;SDS011;39187;48.476;8.310;2023-08-01T10:16:58;1.50;;;1.40;;
53299;SDS011;39187;48.476;8.310;2023-08-01T10:19:24;1.60;;;1.50;;
53299;SDS011;39187;48.476;8.310;2023-08-01T10:21:51;1.80;;;1.50;;
53299;SDS011;39187;48.476;8.310;2023-08-01T10:24:18;1.23;;;1.17;;
53299;SDS011;39187;48.476;8.310;2023-08-01T10:26:45;1.83;;;1.60;;
53299;SDS011;39187;48.476;8.310;2023-08-01T10:29:13;1.87;;;1.60;;
53299;SDS011;39187;48.476;8.310;2023-08-01T10:31:39;1.60;;;1.50;;
53299;SDS011;39187;48.476;8.310;2023-08-01T10:34:15;2.03;;;1.93;;
53299;SDS011;39187;48.476;8.310;2023-08-01T10:36:41;2.10;;;2.00;;
53299;SDS011;39187;48.476;8.310;2023-08-01T10:39:22;1.50;;;1.40;;
53299;SDS011;39187;48.476;8.310;2023-08-01T10:41:56;1.90;;;1.80;;
53299;SDS011;39187;48.476;8.310;2023-08-01T10:44:24;1.13;;;1.10;;
53299;SDS011;39187;48.476;8.310;2023-08-01T10:46:54;5.60;;;1.53;;
53299;SDS011;39187;48.476;8.310;2023-08-01T10:49:32;1.87;;;1.77;;
53299;SDS011;39187;48.476;8.310;2023-08-01T10:52:00;1.83;;;1.73;;
53299;SDS011;39187;48.476;8.310;2023-08-01T10:54:26;1.77;;;1.67;;
53299;SDS011;39187;48.476;8.310;2023-08-01T10:56:52;1.90;;;1.80;;
53299;SDS011;39187;48.476;8.310;2023-08-01T10:59:19;2.37;;;2.27;;
53299;SDS011;39187;48.476;8.310;2023-08-01T11:01:47;1.87;;;1.77;;
53299;SDS011;39187;48.476;8.310;2023-08-01T11:04:20;1.90;;;1.80;;
53299;SDS011;39187;48.476;8.310;2023-08-01T11:06:48;1.60;;;1.50;;
53299;SDS011;39187;48.476;8.310;2023-08-01T11:09:19;1.87;;;1.77;;
53299;SDS011;39187;48.476;8.310;2023-08-01T11:11:49;1.80;;;1.70;;
53299;SDS011;39187;48.476;8.310;2023-08-01T11:14:19;1.93;;;1.80;;
53299;SDS011;39187;48.476;8.310;2023-08-01T11:16:47;1.67;;;1.57;;
53299;SDS011;39187;48.476;8.310;2023-08-01T11:19:25;1.70;;;1.60;;
53299;SDS011;39187;48.476;8.310;2023-08-01T11:21:53;1.60;;;1.50;;
53299;SDS011;39187;48.476;8.310;2023-08-01T11:24:21;1.40;;;1.30;;
53299;SDS011;39187;48.476;8.310;2023-08-01T11:26:48;2.43;;;1.67;;
53299;SDS011;39187;48.476;8.310;2023-08-01T11:29:15;1.83;;;1.67;;
53299;SDS011;39187;48.476;8.310;2023-08-01T11:31:51;1.67;;;1.57;;
53299;SDS011;39187;48.476;8.310;2023-08-01T11:34:26;1.93;;;1.83;;
53299;SDS011;39187;48.476;8.310;2023-08-01T11:36:52;2.57;;;2.47;;
53299;SDS011;39187;48.476;8.310;2023-08-01T11:39:18;2.10;;;1.97;;
53299;SDS011;39187;48.476;8.310;2023-08-01T11:41:44;1.60;;;1.50;;
53299;SDS011;39187;48.476;8.310;2023-08-01T11:44:10;2.50;;;1.77;;
53299;SDS011;39187;48.476;8.310;2023-08-01T11:46:36;1.93;;;1.83;;
53299;SDS011;39187;48.476;8.310;2023-08-01T11:49:04;2.10;;;1.93;;
53299;SDS011;39187;48.476;8.310;2023-08-01T11:51:38;1.90;;;1.80;;
53299;SDS011;39187;48.476;8.310;2023-08-01T11:54:05;5.37;;;1.53;;
53299;SDS011;39187;48.476;8.310;2023-08-01T11:56:32;2.50;;;1.87;;
53299;SDS011;39187;48.476;8.310;2023-08-01T11:58:58;1.93;;;1.83;;
53299;SDS011;39187;48.476;8.310;2023-08-01T12:01:24;2.00;;;1.77;;
53299;SDS011;39187;48.476;8.310;2023-08-01T12:03:54;1.50;;;1.37;;
53299;SDS011;39187;48.476;8.310;2023-08-01T12:06:22;2.10;;;1.87;;
53299;SDS011;39187;48.476;8.310;2023-08-01T12:08:52;1.47;;;1.37;;
53299;SDS011;39187;48.476;8.310;2023-08-01T12:11:19;2.30;;;2.10;;
53299;SDS011;39187;48.476;8.310;2023-08-01T12:16:34;1.90;;;1.80;;
53299;SDS011;39187;48.476;8.310;2023-08-01T12:19:00;1.63;;;1.53;;
53299;SDS011;39187;48.476;8.310;2023-08-01T12:21:26;2.03;;;1.93;;
53299;SDS011;39187;48.476;8.310;2023-08-01T12:23:51;1.80;;;1.70;;
53299;SDS011;39187;48.476;8.310;2023-08-01T12:26:17;1.63;;;1.53;;
53299;SDS011;39187;48.476;8.310;2023-08-01T12:28:42;2.00;;;1.20;;
53299;SDS011;39187;48.476;8.310;2023-08-01T12:31:08;1.60;;;1.50;;
53299;SDS011;39187;48.476;8.310;2023-08-01T12:33:33;1.50;;;1.40;;
53299;SDS011;39187;48.476;8.310;2023-08-01T12:35:59;1.33;;;1.20;;
53299;SDS011;39187;48.476;8.310;2023-08-01T12:38:25;5.30;;;1.97;;
53299;SDS011;39187;48.476;8.310;2023-08-01T12:40:51;2.00;;;1.90;;
53299;SDS011;39187;48.476;8.310;2023-08-01T12:43:17;1.77;;;1.67;;
53299;SDS011;39187;48.476;8.310;2023-08-01T12:45:42;1.80;;;1.70;;
53299;SDS011;39187;48.476;8.310;2023-08-01T12:48:08;1.67;;;1.57;;
53299;SDS011;39187;48.476;8.310;2023-08-01T12:50:34;2.10;;;1.47;;
53299;SDS011;39187;48.476;8.310;2023-08-01T12:52:59;1.57;;;1.47;;
53299;SDS011;39187;48.476;8.310;2023-08-01T12:55:25;5.03;;;1.40;;
53299;SDS011;39187;48.476;8.310;2023-08-01T12:57:50;1.63;;;1.53;;
53299;SDS011;39187;48.476;8.310;2023-08-01T13:00:16;1.50;;;1.40;;
53299;SDS011;39187;48.476;8.310;2023-08-01T13:02:42;1.73;;;1.63;;
53299;SDS011;39187;48.476;8.310;2023-08-01T13:05:07;1.60;;;1.50;;
53299;SDS011;39187;48.476;8.310;2023-08-01T13:07:33;1.73;;;1.63;;
53299;SDS011;39187;48.476;8.310;2023-08-01T13:09:59;2.50;;;1.67;;
53299;SDS011;39187;48.476;8.310;2023-08-01T13:12:25;1.40;;;1.30;;
53299;SDS011;39187;48.476;8.310;2023-08-01T13:14:51;1.90;;;1.80;;
53299;SDS011;39187;48.476;8.310;2023-08-01T13:17:17;1.43;;;1.33;;
53299;SDS011;39187;48.476;8.310;2023-08-01T13:19:43;2.60;;;1.50;;
53299;SDS011;39187;48.476;8.310;2023-08-01T13:22:09;1.80;;;1.70;;
53299;SDS011;39187;48.476;8.310;2023-08-01T13:24:34;2.73;;;1.57;;
53299;SDS011;39187;48.476;8.310;2023-08-01T13:27:00;1.53;;;1.30;;
53299;SDS011;39187;48.476;8.310;2023-08-01T13:29:25;1.70;;;1.60;;
53299;SDS011;39187;48.476;8.310;2023-08-01T13:31:51;1.33;;;1.23;;
53299;SDS011;39187;48.476;8.310;2023-08-01T13:34:16;1.67;;;1.00;;
53299;SDS011;39187;48.476;8.310;2023-08-01T13:36:42;1.57;;;1.40;;
53299;SDS011;39187;48.476;8.310;2023-08-01T13:39:08;2.40;;;1.53;;
53299;SDS011;39187;48.476;8.310;2023-08-01T13:41:34;1.60;;;1.50;;
53299;SDS011;39187;48.476;8.310;2023-08-01T13:44:00;1.30;;;1.20;;
53299;SDS011;39187;48.476;8.310;2023-08-01T13:46:25;1.30;;;1.20;;
53299;SDS011;39187;48.476;8.310;2023-08-01T13:48:51;7.30;;;1.50;;
53299;SDS011;39187;48.476;8.310;2023-08-01T13:51:16;1.13;;;0.93;;
53299;SDS011;39187;48.476;8.310;2023-08-01T13:53:42;1.60;;;1.50;;
53299;SDS011;39187;48.476;8.310;2023-08-01T13:56:08;1.43;;;1.33;;
53299;SDS011;39187;48.476;8.310;2023-08-01T13:58:40;1.53;;;1.43;;
53299;SDS011;39187;48.476;8.310;2023-08-01T14:01:06;1.30;;;1.20;;
53299;SDS011;39187;48.476;8.310;2023-08-01T14:03:33;1.20;;;1.10;;
53299;SDS011;39187;48.476;8.310;2023-08-01T14:06:09;1.07;;;0.80;;
53299;SDS011;39187;48.476;8.310;2023-08-01T14:08:36;2.70;;;1.63;;
53299;SDS011;39187;48.476;8.310;2023-08-01T14:11:03;1.63;;;1.53;;
53299;SDS011;39187;48.476;8.310;2023-08-01T14:13:31;1.27;;;1.17;;
53299;SDS011;39187;48.476;8.310;2023-08-01T14:15:57;1.50;;;1.40;;
53299;SDS011;39187;48.476;8.310;2023-08-01T14:18:22;6.23;;;1.73;;
53299;SDS011;39187;48.476;8.310;2023-08-01T14:20:48;1.87;;;1.10;;
53299;SDS011;39187;48.476;8.310;2023-08-01T14:23:14;1.43;;;1.33;;
53299;SDS011;39187;48.476;8.310;2023-08-01T14:25:39;3.13;;;1.10;;
53299;SDS011;39187;48.476;8.310;2023-08-01T14:28:05;1.70;;;1.17;;
53299;SDS011;39187;48.476;8.310;2023-08-01T14:30:31;1.20;;;1.03;;
53299;SDS011;39187;48.476;8.310;2023-08-01T14:33:00;0.97;;;0.90;;
53299;SDS011;39187;48.476;8.310;2023-08-01T14:35:29;1.10;;;1.10;;
53299;SDS011;39187;48.476;8.310;2023-08-01T14:37:55;1.40;;;1.30;;
53299;SDS011;39187;48.476;8.310;2023-08-01T14:40:21;1.60;;;1.50;;
53299;SDS011;39187;48.476;8.310;2023-08-01T14:42:47;1.43;;;1.33;;
53299;SDS011;39187;48.476;8.310;2023-08-01T14:45:13;1.00;;;1.00;;
53299;SDS011;39187;48.476;8.310;2023-08-01T14:47:39;1.43;;;1.33;;
53299;SDS011;39187;48.476;8.310;2023-08-01T14:50:07;1.43;;;1.33;;
53299;SDS011;39187;48.476;8.310;2023-08-01T14:52:32;1.20;;;1.10;;